sensor_id;sensor_type;location;lat;lon;timestamp;P1;durP1;ratioP1;P2;durP2;ratioP2
66546;SDS011;53400;50.364;14.874;2022-08-27T00:02:08;11.45;;;6.75;;
66546;SDS011;53400;50.364;14.874;2022-08-27T00:04:35;10.02;;;6.72;;
66546;SDS011;53400;50.364;14.874;2022-08-27T00:07:02;11.90;;;7.10;;
66546;SDS011;53400;50.364;14.874;2022-08-27T00:09:28;10.05;;;6.85;;
66546;SDS011;53400;50.364;14.874;2022-08-27T00:11:54;10.50;;;6.85;;
66546;SDS011;53400;50.364;14.874;2022-08-27T00:14:22;15.48;;;8.77;;
66546;SDS011;53400;50.364;14.874;2022-08-27T00:16:50;17.08;;;9.68;;
66546;SDS011;53400;50.364;14.874;2022-08-27T00:19:16;17.33;;;9.95;;
66546;SDS011;53400;50.364;14.874;2022-08-27T00:21:42;17.15;;;10.52;;
66546;SDS011;53400;50.364;14.874;2022-08-27T00:24:08;17.88;;;9.95;;
66546;SDS011;53400;50.364;14.874;2022-08-27T00:26:36;13.68;;;8.57;;
66546;SDS011;53400;50.364;14.874;2022-08-27T00:29:02;12.07;;;7.43;;
66546;SDS011;53400;50.364;14.874;2022-08-27T00:31:28;11.23;;;6.93;;
66546;SDS011;53400;50.364;14.874;2022-08-27T00:33:56;10.80;;;6.18;;
66546;SDS011;53400;50.364;14.874;2022-08-27T00:36:22;9.25;;;6.15;;
66546;SDS011;53400;50.364;14.874;2022-08-27T00:38:48;8.50;;;5.75;;
66546;SDS011;53400;50.364;14.874;2022-08-27T00:41:14;10.05;;;6.25;;
66546;SDS011;53400;50.364;14.874;2022-08-27T00:43:43;11.02;;;6.22;;
66546;SDS011;53400;50.364;14.874;2022-08-27T00:46:13;12.50;;;6.53;;
66546;SDS011;53400;50.364;14.874;2022-08-27T00:48:49;11.75;;;6.68;;
66546;SDS011;53400;50.364;14.874;2022-08-27T00:51:18;12.57;;;7.53;;
66546;SDS011;53400;50.364;14.874;2022-08-27T00:53:46;12.98;;;7.60;;
66546;SDS011;53400;50.364;14.874;2022-08-27T00:56:15;12.57;;;7.18;;
66546;SDS011;53400;50.364;14.874;2022-08-27T00:58:45;11.63;;;7.65;;
66546;SDS011;53400;50.364;14.874;2022-08-27T01:01:15;10.98;;;7.95;;
66546;SDS011;53400;50.364;14.874;2022-08-27T01:03:43;11.13;;;8.13;;
66546;SDS011;53400;50.364;14.874;2022-08-27T01:06:13;12.55;;;7.82;;
66546;SDS011;53400;50.364;14.874;2022-08-27T01:08:42;13.20;;;7.93;;
66546;SDS011;53400;50.364;14.874;2022-08-27T01:11:11;14.93;;;10.05;;
66546;SDS011;53400;50.364;14.874;2022-08-27T01:13:37;11.73;;;7.43;;
66546;SDS011;53400;50.364;14.874;2022-08-27T01:16:03;13.82;;;8.52;;
66546;SDS011;53400;50.364;14.874;2022-08-27T01:18:32;11.85;;;9.38;;
66546;SDS011;53400;50.364;14.874;2022-08-27T01:21:02;14.32;;;9.70;;
66546;SDS011;53400;50.364;14.874;2022-08-27T01:23:36;14.93;;;9.73;;
66546;SDS011;53400;50.364;14.874;2022-08-27T01:26:08;13.20;;;9.73;;
66546;SDS011;53400;50.364;14.874;2022-08-27T01:28:37;13.38;;;9.90;;
66546;SDS011;53400;50.364;14.874;2022-08-27T01:31:03;15.65;;;9.90;;
66546;SDS011;53400;50.364;14.874;2022-08-27T01:33:31;14.45;;;10.27;;
66546;SDS011;53400;50.364;14.874;2022-08-27T01:35:58;14.18;;;9.15;;
66546;SDS011;53400;50.364;14.874;2022-08-27T01:38:24;13.73;;;10.15;;
66546;SDS011;53400;50.364;14.874;2022-08-27T01:40:51;12.00;;;9.18;;
66546;SDS011;53400;50.364;14.874;2022-08-27T01:43:19;14.10;;;10.15;;
66546;SDS011;53400;50.364;14.874;2022-08-27T01:45:47;14.20;;;10.23;;
66546;SDS011;53400;50.364;14.874;2022-08-27T01:48:14;13.00;;;9.27;;
66546;SDS011;53400;50.364;14.874;2022-08-27T01:50:41;12.85;;;9.15;;
66546;SDS011;53400;50.364;14.874;2022-08-27T01:53:09;14.55;;;9.30;;
66546;SDS011;53400;50.364;14.874;2022-08-27T01:55:36;12.68;;;9.13;;
66546;SDS011;53400;50.364;14.874;2022-08-27T01:58:03;12.60;;;9.70;;
66546;SDS011;53400;50.364;14.874;2022-08-27T02:00:31;11.75;;;8.10;;
66546;SDS011;53400;50.364;14.874;2022-08-27T02:03:00;15.27;;;9.45;;
66546;SDS011;53400;50.364;14.874;2022-08-27T02:05:27;11.82;;;8.98;;
66546;SDS011;53400;50.364;14.874;2022-08-27T02:07:53;14.20;;;10.55;;
66546;SDS011;53400;50.364;14.874;2022-08-27T02:10:20;13.48;;;9.52;;
66546;SDS011;53400;50.364;14.874;2022-08-27T02:12:49;12.65;;;8.85;;
66546;SDS011;53400;50.364;14.874;2022-08-27T02:15:15;12.68;;;8.57;;
66546;SDS011;53400;50.364;14.874;2022-08-27T02:17:43;10.38;;;8.00;;
66546;SDS011;53400;50.364;14.874;2022-08-27T02:20:09;13.02;;;9.07;;
66546;SDS011;53400;50.364;14.874;2022-08-27T02:22:35;11.85;;;8.65;;
66546;SDS011;53400;50.364;14.874;2022-08-27T02:25:01;12.98;;;8.63;;
66546;SDS011;53400;50.364;14.874;2022-08-27T02:27:27;11.90;;;8.25;;
66546;SDS011;53400;50.364;14.874;2022-08-27T02:29:53;12.15;;;8.00;;
66546;SDS011;53400;50.364;14.874;2022-08-27T02:32:19;16.23;;;9.25;;
66546;SDS011;53400;50.364;14.874;2022-08-27T02:34:48;14.00;;;8.48;;
66546;SDS011;53400;50.364;14.874;2022-08-27T02:37:13;13.32;;;9.30;;
66546;SDS011;53400;50.364;14.874;2022-08-27T02:39:39;11.85;;;9.00;;
66546;SDS011;53400;50.364;14.874;2022-08-27T02:42:06;11.48;;;8.63;;
66546;SDS011;53400;50.364;14.874;2022-08-27T02:44:32;13.98;;;9.25;;
66546;SDS011;53400;50.364;14.874;2022-08-27T02:47:00;11.65;;;8.05;;
66546;SDS011;53400;50.364;14.874;2022-08-27T02:49:27;14.57;;;9.57;;
66546;SDS011;53400;50.364;14.874;2022-08-27T02:51:54;13.98;;;9.95;;
66546;SDS011;53400;50.364;14.874;2022-08-27T02:54:20;14.52;;;9.57;;
66546;SDS011;53400;50.364;14.874;2022-08-27T02:56:48;13.60;;;9.93;;
66546;SDS011;53400;50.364;14.874;2022-08-27T02:59:14;15.52;;;10.20;;
66546;SDS011;53400;50.364;14.874;2022-08-27T03:01:40;17.50;;;11.38;;
66546;SDS011;53400;50.364;14.874;2022-08-27T03:04:06;15.27;;;10.95;;
66546;SDS011;53400;50.364;14.874;2022-08-27T03:06:32;18.70;;;12.98;;
66546;SDS011;53400;50.364;14.874;2022-08-27T03:08:59;58.20;;;15.77;;
66546;SDS011;53400;50.364;14.874;2022-08-27T03:11:25;91.82;;;17.27;;
66546;SDS011;53400;50.364;14.874;2022-08-27T03:13:51;169.57;;;18.63;;
66546;SDS011;53400;50.364;14.874;2022-08-27T03:16:17;170.23;;;18.08;;
66546;SDS011;53400;50.364;14.874;2022-08-27T03:18:43;123.60;;;16.02;;
66546;SDS011;53400;50.364;14.874;2022-08-27T03:21:14;107.88;;;15.20;;
66546;SDS011;53400;50.364;14.874;2022-08-27T03:23:42;126.88;;;15.32;;
66546;SDS011;53400;50.364;14.874;2022-08-27T03:26:10;131.55;;;15.35;;
66546;SDS011;53400;50.364;14.874;2022-08-27T03:28:36;75.15;;;12.68;;
66546;SDS011;53400;50.364;14.874;2022-08-27T03:31:04;142.45;;;17.23;;
66546;SDS011;53400;50.364;14.874;2022-08-27T03:33:32;106.15;;;13.48;;
66546;SDS011;53400;50.364;14.874;2022-08-27T03:35:59;37.10;;;10.50;;
66546;SDS011;53400;50.364;14.874;2022-08-27T03:38:25;58.58;;;11.73;;
66546;SDS011;53400;50.364;14.874;2022-08-27T03:40:52;70.78;;;12.50;;
66546;SDS011;53400;50.364;14.874;2022-08-27T03:43:20;25.70;;;10.32;;
66546;SDS011;53400;50.364;14.874;2022-08-27T03:45:47;26.70;;;11.05;;
66546;SDS011;53400;50.364;14.874;2022-08-27T03:48:14;49.53;;;10.45;;
66546;SDS011;53400;50.364;14.874;2022-08-27T03:50:41;40.10;;;10.82;;
66546;SDS011;53400;50.364;14.874;2022-08-27T03:53:09;16.02;;;9.75;;
66546;SDS011;53400;50.364;14.874;2022-08-27T03:55:35;61.25;;;11.38;;
66546;SDS011;53400;50.364;14.874;2022-08-27T03:58:01;13.70;;;9.70;;
66546;SDS011;53400;50.364;14.874;2022-08-27T04:00:29;11.82;;;8.75;;
66546;SDS011;53400;50.364;14.874;2022-08-27T04:02:55;10.35;;;7.95;;
66546;SDS011;53400;50.364;14.874;2022-08-27T04:05:21;18.88;;;7.93;;
66546;SDS011;53400;50.364;14.874;2022-08-27T04:07:47;14.15;;;7.75;;
66546;SDS011;53400;50.364;14.874;2022-08-27T04:10:14;8.98;;;6.85;;
66546;SDS011;53400;50.364;14.874;2022-08-27T04:12:42;11.10;;;7.03;;
66546;SDS011;53400;50.364;14.874;2022-08-27T04:15:09;18.27;;;7.88;;
66546;SDS011;53400;50.364;14.874;2022-08-27T04:17:37;9.82;;;7.10;;
66546;SDS011;53400;50.364;14.874;2022-08-27T04:20:04;12.77;;;7.60;;
66546;SDS011;53400;50.364;14.874;2022-08-27T04:22:31;10.18;;;7.50;;
66546;SDS011;53400;50.364;14.874;2022-08-27T04:24:58;9.60;;;6.95;;
66546;SDS011;53400;50.364;14.874;2022-08-27T04:27:24;12.70;;;7.30;;
66546;SDS011;53400;50.364;14.874;2022-08-27T04:29:52;15.75;;;7.35;;
66546;SDS011;53400;50.364;14.874;2022-08-27T04:32:20;8.52;;;6.70;;
66546;SDS011;53400;50.364;14.874;2022-08-27T04:34:47;9.60;;;7.15;;
66546;SDS011;53400;50.364;14.874;2022-08-27T04:37:13;12.73;;;7.43;;
66546;SDS011;53400;50.364;14.874;2022-08-27T04:39:39;8.75;;;6.47;;
66546;SDS011;53400;50.364;14.874;2022-08-27T04:42:05;12.45;;;6.68;;
66546;SDS011;53400;50.364;14.874;2022-08-27T04:44:31;11.10;;;7.15;;
66546;SDS011;53400;50.364;14.874;2022-08-27T04:46:58;10.30;;;7.20;;
66546;SDS011;53400;50.364;14.874;2022-08-27T04:49:26;10.80;;;7.28;;
66546;SDS011;53400;50.364;14.874;2022-08-27T04:51:54;10.85;;;7.97;;
66546;SDS011;53400;50.364;14.874;2022-08-27T04:54:23;11.43;;;7.68;;
66546;SDS011;53400;50.364;14.874;2022-08-27T04:56:49;13.75;;;8.35;;
66546;SDS011;53400;50.364;14.874;2022-08-27T04:59:15;18.17;;;8.50;;
66546;SDS011;53400;50.364;14.874;2022-08-27T05:01:41;14.70;;;8.07;;
66546;SDS011;53400;50.364;14.874;2022-08-27T05:04:08;20.10;;;7.90;;
66546;SDS011;53400;50.364;14.874;2022-08-27T05:06:36;11.25;;;8.18;;
66546;SDS011;53400;50.364;14.874;2022-08-27T05:09:04;16.58;;;8.30;;
66546;SDS011;53400;50.364;14.874;2022-08-27T05:11:30;16.33;;;8.38;;
66546;SDS011;53400;50.364;14.874;2022-08-27T05:14:00;22.35;;;8.60;;
66546;SDS011;53400;50.364;14.874;2022-08-27T05:16:27;52.67;;;9.98;;
66546;SDS011;53400;50.364;14.874;2022-08-27T05:18:52;50.55;;;10.35;;
66546;SDS011;53400;50.364;14.874;2022-08-27T05:21:19;45.42;;;10.35;;
66546;SDS011;53400;50.364;14.874;2022-08-27T05:23:47;28.38;;;9.38;;
66546;SDS011;53400;50.364;14.874;2022-08-27T05:26:15;38.83;;;9.73;;
66546;SDS011;53400;50.364;14.874;2022-08-27T05:28:41;20.67;;;9.52;;
66546;SDS011;53400;50.364;14.874;2022-08-27T05:31:09;47.42;;;11.32;;
66546;SDS011;53400;50.364;14.874;2022-08-27T05:33:36;36.65;;;10.95;;
66546;SDS011;53400;50.364;14.874;2022-08-27T05:36:03;50.85;;;11.63;;
66546;SDS011;53400;50.364;14.874;2022-08-27T05:38:30;63.85;;;11.75;;
66546;SDS011;53400;50.364;14.874;2022-08-27T05:41:04;43.50;;;11.15;;
66546;SDS011;53400;50.364;14.874;2022-08-27T05:43:33;41.55;;;12.27;;
66546;SDS011;53400;50.364;14.874;2022-08-27T05:46:01;40.42;;;11.80;;
66546;SDS011;53400;50.364;14.874;2022-08-27T05:48:29;25.48;;;11.32;;
66546;SDS011;53400;50.364;14.874;2022-08-27T05:50:55;25.75;;;11.68;;
66546;SDS011;53400;50.364;14.874;2022-08-27T05:53:21;25.88;;;11.35;;
66546;SDS011;53400;50.364;14.874;2022-08-27T05:55:48;22.50;;;11.45;;
66546;SDS011;53400;50.364;14.874;2022-08-27T05:58:14;13.65;;;9.02;;
66546;SDS011;53400;50.364;14.874;2022-08-27T06:01:00;28.52;;;11.95;;
66546;SDS011;53400;50.364;14.874;2022-08-27T06:03:29;26.17;;;11.88;;
66546;SDS011;53400;50.364;14.874;2022-08-27T06:05:58;31.55;;;11.98;;
66546;SDS011;53400;50.364;14.874;2022-08-27T06:08:25;18.15;;;11.60;;
66546;SDS011;53400;50.364;14.874;2022-08-27T06:10:51;28.15;;;12.05;;
66546;SDS011;53400;50.364;14.874;2022-08-27T06:13:17;30.40;;;12.88;;
66546;SDS011;53400;50.364;14.874;2022-08-27T06:15:43;23.65;;;12.27;;
66546;SDS011;53400;50.364;14.874;2022-08-27T06:18:10;55.65;;;13.95;;
66546;SDS011;53400;50.364;14.874;2022-08-27T06:20:37;47.00;;;13.02;;
66546;SDS011;53400;50.364;14.874;2022-08-27T06:23:03;30.05;;;13.13;;
66546;SDS011;53400;50.364;14.874;2022-08-27T06:25:29;55.70;;;13.77;;
66546;SDS011;53400;50.364;14.874;2022-08-27T06:27:56;45.40;;;13.35;;
66546;SDS011;53400;50.364;14.874;2022-08-27T06:30:23;28.58;;;13.05;;
66546;SDS011;53400;50.364;14.874;2022-08-27T06:32:49;40.60;;;14.77;;
66546;SDS011;53400;50.364;14.874;2022-08-27T06:35:17;30.83;;;13.63;;
66546;SDS011;53400;50.364;14.874;2022-08-27T06:37:43;35.95;;;14.48;;
66546;SDS011;53400;50.364;14.874;2022-08-27T06:40:09;46.00;;;15.57;;
66546;SDS011;53400;50.364;14.874;2022-08-27T06:42:35;34.72;;;14.68;;
66546;SDS011;53400;50.364;14.874;2022-08-27T06:45:02;33.55;;;14.77;;
66546;SDS011;53400;50.364;14.874;2022-08-27T06:47:29;37.80;;;15.75;;
66546;SDS011;53400;50.364;14.874;2022-08-27T06:49:55;35.65;;;14.88;;
66546;SDS011;53400;50.364;14.874;2022-08-27T06:52:24;44.30;;;15.60;;
66546;SDS011;53400;50.364;14.874;2022-08-27T06:54:50;39.63;;;17.10;;
66546;SDS011;53400;50.364;14.874;2022-08-27T06:57:16;35.63;;;15.07;;
66546;SDS011;53400;50.364;14.874;2022-08-27T06:59:41;37.80;;;16.05;;
66546;SDS011;53400;50.364;14.874;2022-08-27T07:02:09;42.63;;;16.63;;
66546;SDS011;53400;50.364;14.874;2022-08-27T07:04:35;42.88;;;16.95;;
66546;SDS011;53400;50.364;14.874;2022-08-27T07:07:01;36.10;;;15.05;;
66546;SDS011;53400;50.364;14.874;2022-08-27T07:09:29;48.30;;;16.20;;
66546;SDS011;53400;50.364;14.874;2022-08-27T07:11:56;63.33;;;17.80;;
66546;SDS011;53400;50.364;14.874;2022-08-27T07:14:23;46.42;;;17.17;;
66546;SDS011;53400;50.364;14.874;2022-08-27T07:16:49;41.83;;;18.25;;
66546;SDS011;53400;50.364;14.874;2022-08-27T07:19:16;54.75;;;18.00;;
66546;SDS011;53400;50.364;14.874;2022-08-27T07:21:42;49.75;;;19.08;;
66546;SDS011;53400;50.364;14.874;2022-08-27T07:24:08;43.80;;;18.98;;
66546;SDS011;53400;50.364;14.874;2022-08-27T07:26:36;47.72;;;19.70;;
66546;SDS011;53400;50.364;14.874;2022-08-27T07:29:04;42.75;;;19.00;;
66546;SDS011;53400;50.364;14.874;2022-08-27T07:31:31;50.38;;;19.52;;
66546;SDS011;53400;50.364;14.874;2022-08-27T07:33:59;44.17;;;19.38;;
66546;SDS011;53400;50.364;14.874;2022-08-27T07:36:25;44.38;;;20.35;;
66546;SDS011;53400;50.364;14.874;2022-08-27T07:38:51;45.38;;;20.70;;
66546;SDS011;53400;50.364;14.874;2022-08-27T07:41:17;43.55;;;19.30;;
66546;SDS011;53400;50.364;14.874;2022-08-27T07:43:45;47.63;;;20.75;;
66546;SDS011;53400;50.364;14.874;2022-08-27T07:46:29;44.25;;;19.48;;
66546;SDS011;53400;50.364;14.874;2022-08-27T07:49:00;46.42;;;20.30;;
66546;SDS011;53400;50.364;14.874;2022-08-27T07:51:26;46.65;;;20.00;;
66546;SDS011;53400;50.364;14.874;2022-08-27T07:53:56;44.03;;;19.58;;
66546;SDS011;53400;50.364;14.874;2022-08-27T07:56:23;44.92;;;20.25;;
66546;SDS011;53400;50.364;14.874;2022-08-27T07:58:50;45.72;;;21.25;;
66546;SDS011;53400;50.364;14.874;2022-08-27T08:01:16;48.03;;;21.27;;
66546;SDS011;53400;50.364;14.874;2022-08-27T08:03:42;48.40;;;21.48;;
66546;SDS011;53400;50.364;14.874;2022-08-27T08:06:09;49.15;;;22.23;;
66546;SDS011;53400;50.364;14.874;2022-08-27T08:08:37;43.13;;;20.70;;
66546;SDS011;53400;50.364;14.874;2022-08-27T08:11:07;47.42;;;21.95;;
66546;SDS011;53400;50.364;14.874;2022-08-27T08:13:33;48.00;;;22.67;;
66546;SDS011;53400;50.364;14.874;2022-08-27T08:16:01;53.13;;;23.60;;
66546;SDS011;53400;50.364;14.874;2022-08-27T08:18:27;42.97;;;20.88;;
66546;SDS011;53400;50.364;14.874;2022-08-27T08:20:57;46.10;;;22.02;;
66546;SDS011;53400;50.364;14.874;2022-08-27T08:23:24;42.15;;;20.40;;
66546;SDS011;53400;50.364;14.874;2022-08-27T08:25:50;39.05;;;19.98;;
66546;SDS011;53400;50.364;14.874;2022-08-27T08:28:16;46.58;;;22.15;;
66546;SDS011;53400;50.364;14.874;2022-08-27T08:30:42;38.65;;;20.27;;
66546;SDS011;53400;50.364;14.874;2022-08-27T08:33:09;39.35;;;20.25;;
66546;SDS011;53400;50.364;14.874;2022-08-27T08:35:37;36.33;;;18.83;;
66546;SDS011;53400;50.364;14.874;2022-08-27T08:38:03;40.58;;;20.95;;
66546;SDS011;53400;50.364;14.874;2022-08-27T08:40:29;38.88;;;20.40;;
66546;SDS011;53400;50.364;14.874;2022-08-27T08:42:59;41.03;;;21.30;;
66546;SDS011;53400;50.364;14.874;2022-08-27T08:45:28;38.35;;;21.33;;
66546;SDS011;53400;50.364;14.874;2022-08-27T08:47:57;40.85;;;22.20;;
66546;SDS011;53400;50.364;14.874;2022-08-27T08:50:32;43.60;;;22.45;;
66546;SDS011;53400;50.364;14.874;2022-08-27T08:53:04;32.83;;;19.25;;
66546;SDS011;53400;50.364;14.874;2022-08-27T08:55:36;40.30;;;21.40;;
66546;SDS011;53400;50.364;14.874;2022-08-27T09:00:37;37.75;;;20.92;;
66546;SDS011;53400;50.364;14.874;2022-08-27T09:03:04;36.42;;;20.73;;
66546;SDS011;53400;50.364;14.874;2022-08-27T09:05:32;35.50;;;21.10;;
66546;SDS011;53400;50.364;14.874;2022-08-27T09:08:04;40.03;;;22.85;;
66546;SDS011;53400;50.364;14.874;2022-08-27T09:10:39;38.53;;;21.50;;
66546;SDS011;53400;50.364;14.874;2022-08-27T09:13:13;35.55;;;21.67;;
66546;SDS011;53400;50.364;14.874;2022-08-27T09:15:46;35.95;;;20.45;;
66546;SDS011;53400;50.364;14.874;2022-08-27T09:18:13;34.47;;;22.08;;
66546;SDS011;53400;50.364;14.874;2022-08-27T09:20:43;32.58;;;20.25;;
66546;SDS011;53400;50.364;14.874;2022-08-27T09:23:13;33.55;;;21.67;;
66546;SDS011;53400;50.364;14.874;2022-08-27T09:28:11;30.13;;;18.42;;
66546;SDS011;53400;50.364;14.874;2022-08-27T09:30:58;35.38;;;21.67;;
66546;SDS011;53400;50.364;14.874;2022-08-27T09:33:29;35.05;;;22.00;;
66546;SDS011;53400;50.364;14.874;2022-08-27T09:36:00;32.83;;;20.48;;
66546;SDS011;53400;50.364;14.874;2022-08-27T09:38:28;37.92;;;21.95;;
66546;SDS011;53400;50.364;14.874;2022-08-27T09:40:57;35.53;;;22.13;;
66546;SDS011;53400;50.364;14.874;2022-08-27T09:43:25;33.47;;;20.83;;
66546;SDS011;53400;50.364;14.874;2022-08-27T09:45:53;31.98;;;20.92;;
66546;SDS011;53400;50.364;14.874;2022-08-27T09:48:22;35.10;;;21.95;;
66546;SDS011;53400;50.364;14.874;2022-08-27T09:50:51;33.63;;;21.92;;
66546;SDS011;53400;50.364;14.874;2022-08-27T09:53:22;33.58;;;21.63;;
66546;SDS011;53400;50.364;14.874;2022-08-27T09:55:53;36.17;;;22.20;;
66546;SDS011;53400;50.364;14.874;2022-08-27T09:58:22;37.40;;;20.75;;
66546;SDS011;53400;50.364;14.874;2022-08-27T10:00:57;31.55;;;20.83;;
66546;SDS011;53400;50.364;14.874;2022-08-27T10:03:25;34.75;;;20.90;;
66546;SDS011;53400;50.364;14.874;2022-08-27T10:05:51;30.85;;;20.02;;
66546;SDS011;53400;50.364;14.874;2022-08-27T10:08:19;31.20;;;19.90;;
66546;SDS011;53400;50.364;14.874;2022-08-27T10:10:56;28.60;;;18.13;;
66546;SDS011;53400;50.364;14.874;2022-08-27T10:13:25;32.10;;;19.23;;
66546;SDS011;53400;50.364;14.874;2022-08-27T10:19:04;29.48;;;18.73;;
66546;SDS011;53400;50.364;14.874;2022-08-27T10:21:44;25.75;;;17.85;;
66546;SDS011;53400;50.364;14.874;2022-08-27T10:24:21;28.63;;;19.75;;
66546;SDS011;53400;50.364;14.874;2022-08-27T10:27:00;29.98;;;19.52;;
66546;SDS011;53400;50.364;14.874;2022-08-27T10:29:34;32.55;;;19.98;;
66546;SDS011;53400;50.364;14.874;2022-08-27T10:32:08;30.92;;;21.23;;
66546;SDS011;53400;50.364;14.874;2022-08-27T10:34:50;33.10;;;21.13;;
66546;SDS011;53400;50.364;14.874;2022-08-27T10:37:30;31.10;;;20.27;;
66546;SDS011;53400;50.364;14.874;2022-08-27T10:40:05;35.17;;;22.77;;
66546;SDS011;53400;50.364;14.874;2022-08-27T10:42:38;32.63;;;21.05;;
66546;SDS011;53400;50.364;14.874;2022-08-27T10:45:15;34.30;;;20.77;;
66546;SDS011;53400;50.364;14.874;2022-08-27T10:47:54;31.50;;;20.85;;
66546;SDS011;53400;50.364;14.874;2022-08-27T10:50:29;32.33;;;20.17;;
66546;SDS011;53400;50.364;14.874;2022-08-27T10:53:07;31.77;;;20.40;;
66546;SDS011;53400;50.364;14.874;2022-08-27T10:55:39;30.90;;;19.92;;
66546;SDS011;53400;50.364;14.874;2022-08-27T10:58:13;26.20;;;17.70;;
66546;SDS011;53400;50.364;14.874;2022-08-27T11:00:53;32.15;;;17.48;;
66546;SDS011;53400;50.364;14.874;2022-08-27T11:03:27;28.90;;;18.13;;
66546;SDS011;53400;50.364;14.874;2022-08-27T11:05:58;25.63;;;17.02;;
66546;SDS011;53400;50.364;14.874;2022-08-27T11:08:28;28.75;;;18.13;;
66546;SDS011;53400;50.364;14.874;2022-08-27T11:11:04;31.27;;;21.40;;
66546;SDS011;53400;50.364;14.874;2022-08-27T11:13:35;32.05;;;20.25;;
66546;SDS011;53400;50.364;14.874;2022-08-27T11:16:07;32.45;;;20.63;;
66546;SDS011;53400;50.364;14.874;2022-08-27T11:18:38;30.13;;;20.10;;
66546;SDS011;53400;50.364;14.874;2022-08-27T11:21:12;31.42;;;19.80;;
66546;SDS011;53400;50.364;14.874;2022-08-27T11:23:44;28.02;;;19.00;;
66546;SDS011;53400;50.364;14.874;2022-08-27T11:26:15;32.85;;;20.02;;
66546;SDS011;53400;50.364;14.874;2022-08-27T11:28:41;34.00;;;21.15;;
66546;SDS011;53400;50.364;14.874;2022-08-27T11:31:14;30.67;;;20.40;;
66546;SDS011;53400;50.364;14.874;2022-08-27T11:33:46;30.10;;;20.33;;
66546;SDS011;53400;50.364;14.874;2022-08-27T11:36:27;31.08;;;21.45;;
66546;SDS011;53400;50.364;14.874;2022-08-27T11:39:13;34.47;;;21.88;;
66546;SDS011;53400;50.364;14.874;2022-08-27T11:41:53;32.70;;;20.95;;
66546;SDS011;53400;50.364;14.874;2022-08-27T11:44:31;29.10;;;19.15;;
66546;SDS011;53400;50.364;14.874;2022-08-27T11:47:07;32.88;;;19.02;;
66546;SDS011;53400;50.364;14.874;2022-08-27T11:49:40;30.13;;;19.80;;
66546;SDS011;53400;50.364;14.874;2022-08-27T11:52:10;30.20;;;19.42;;
66546;SDS011;53400;50.364;14.874;2022-08-27T11:54:45;29.30;;;17.58;;
66546;SDS011;53400;50.364;14.874;2022-08-27T11:57:14;30.58;;;19.77;;
66546;SDS011;53400;50.364;14.874;2022-08-27T11:59:49;29.90;;;19.08;;
66546;SDS011;53400;50.364;14.874;2022-08-27T12:02:19;31.23;;;21.65;;
66546;SDS011;53400;50.364;14.874;2022-08-27T12:07:23;28.58;;;18.80;;
66546;SDS011;53400;50.364;14.874;2022-08-27T12:10:00;29.70;;;19.70;;
66546;SDS011;53400;50.364;14.874;2022-08-27T12:12:44;30.00;;;19.55;;
66546;SDS011;53400;50.364;14.874;2022-08-27T12:15:28;32.70;;;20.95;;
66546;SDS011;53400;50.364;14.874;2022-08-27T12:18:07;31.83;;;21.80;;
66546;SDS011;53400;50.364;14.874;2022-08-27T12:20:56;29.80;;;20.05;;
66546;SDS011;53400;50.364;14.874;2022-08-27T12:23:28;31.25;;;20.13;;
66546;SDS011;53400;50.364;14.874;2022-08-27T12:26:29;32.70;;;20.77;;
66546;SDS011;53400;50.364;14.874;2022-08-27T12:29:19;31.42;;;21.63;;
66546;SDS011;53400;50.364;14.874;2022-08-27T12:31:50;33.17;;;22.33;;
66546;SDS011;53400;50.364;14.874;2022-08-27T12:34:19;30.58;;;19.55;;
66546;SDS011;53400;50.364;14.874;2022-08-27T12:36:50;32.75;;;20.05;;
66546;SDS011;53400;50.364;14.874;2022-08-27T12:39:18;30.02;;;19.48;;
66546;SDS011;53400;50.364;14.874;2022-08-27T12:41:48;28.90;;;19.40;;
66546;SDS011;53400;50.364;14.874;2022-08-27T12:44:23;30.05;;;19.65;;
66546;SDS011;53400;50.364;14.874;2022-08-27T12:46:53;27.00;;;18.92;;
66546;SDS011;53400;50.364;14.874;2022-08-27T12:49:24;24.58;;;17.23;;
66546;SDS011;53400;50.364;14.874;2022-08-27T12:51:54;24.58;;;17.27;;
66546;SDS011;53400;50.364;14.874;2022-08-27T12:54:31;26.52;;;18.23;;
66546;SDS011;53400;50.364;14.874;2022-08-27T12:57:08;25.42;;;18.38;;
66546;SDS011;53400;50.364;14.874;2022-08-27T12:59:48;26.23;;;18.75;;
66546;SDS011;53400;50.364;14.874;2022-08-27T13:05:20;25.00;;;18.77;;
66546;SDS011;53400;50.364;14.874;2022-08-27T13:07:49;24.88;;;17.70;;
66546;SDS011;53400;50.364;14.874;2022-08-27T13:10:16;27.42;;;18.58;;
66546;SDS011;53400;50.364;14.874;2022-08-27T13:12:44;24.23;;;17.63;;
66546;SDS011;53400;50.364;14.874;2022-08-27T13:15:14;24.77;;;17.83;;
66546;SDS011;53400;50.364;14.874;2022-08-27T13:17:41;22.40;;;16.13;;
66546;SDS011;53400;50.364;14.874;2022-08-27T13:20:12;25.85;;;18.30;;
66546;SDS011;53400;50.364;14.874;2022-08-27T13:22:40;23.67;;;17.17;;
66546;SDS011;53400;50.364;14.874;2022-08-27T13:25:17;22.40;;;16.33;;
66546;SDS011;53400;50.364;14.874;2022-08-27T13:27:50;25.67;;;17.35;;
66546;SDS011;53400;50.364;14.874;2022-08-27T13:30:19;24.65;;;17.98;;
66546;SDS011;53400;50.364;14.874;2022-08-27T13:32:47;23.83;;;17.65;;
66546;SDS011;53400;50.364;14.874;2022-08-27T13:35:14;26.38;;;17.38;;
66546;SDS011;53400;50.364;14.874;2022-08-27T13:37:41;23.63;;;16.08;;
66546;SDS011;53400;50.364;14.874;2022-08-27T13:40:09;23.10;;;17.38;;
66546;SDS011;53400;50.364;14.874;2022-08-27T13:42:47;21.25;;;16.10;;
66546;SDS011;53400;50.364;14.874;2022-08-27T13:45:15;23.77;;;17.27;;
66546;SDS011;53400;50.364;14.874;2022-08-27T13:47:43;19.23;;;15.45;;
66546;SDS011;53400;50.364;14.874;2022-08-27T13:50:12;22.92;;;15.85;;
66546;SDS011;53400;50.364;14.874;2022-08-27T13:52:44;21.67;;;16.35;;
66546;SDS011;53400;50.364;14.874;2022-08-27T13:55:29;20.40;;;15.77;;
66546;SDS011;53400;50.364;14.874;2022-08-27T13:57:55;20.85;;;15.07;;
66546;SDS011;53400;50.364;14.874;2022-08-27T14:00:23;23.67;;;16.70;;
66546;SDS011;53400;50.364;14.874;2022-08-27T14:02:53;21.20;;;16.45;;
66546;SDS011;53400;50.364;14.874;2022-08-27T14:05:26;19.90;;;14.98;;
66546;SDS011;53400;50.364;14.874;2022-08-27T14:07:55;19.92;;;14.50;;
66546;SDS011;53400;50.364;14.874;2022-08-27T14:10:25;20.42;;;15.95;;
66546;SDS011;53400;50.364;14.874;2022-08-27T14:12:57;18.77;;;14.60;;
66546;SDS011;53400;50.364;14.874;2022-08-27T14:15:27;20.13;;;14.95;;
66546;SDS011;53400;50.364;14.874;2022-08-27T14:17:58;19.95;;;15.25;;
66546;SDS011;53400;50.364;14.874;2022-08-27T14:20:24;21.13;;;15.98;;
66546;SDS011;53400;50.364;14.874;2022-08-27T14:22:50;18.85;;;14.85;;
66546;SDS011;53400;50.364;14.874;2022-08-27T14:25:17;20.63;;;16.33;;
66546;SDS011;53400;50.364;14.874;2022-08-27T14:27:45;24.33;;;16.02;;
66546;SDS011;53400;50.364;14.874;2022-08-27T14:30:12;21.20;;;16.88;;
66546;SDS011;53400;50.364;14.874;2022-08-27T14:32:40;21.90;;;15.55;;
66546;SDS011;53400;50.364;14.874;2022-08-27T14:35:08;21.75;;;16.42;;
66546;SDS011;53400;50.364;14.874;2022-08-27T14:37:35;20.67;;;16.38;;
66546;SDS011;53400;50.364;14.874;2022-08-27T14:40:02;21.67;;;16.45;;